Etusivu
METAR-TAF:

METAR-TAF

Lentoasemat :

Røst, Norja

Leveyspiiri: 67-31N, Pituuspiiri: 012-06E, korkeus merenpinnasta: 4 m

Tämänhetkinen sää

Tämä raportti tehtiin 6 tuntia ja 44 minuuttia sitten, kello 12.50 UTC
Tuuli 11 kn pohjoisen/luoteesta
Lämpötila 14°C
Kosteus 88%
Ilmanpaine 1008 hPa
Näkyvyys 10 km tai enemmän

METAR: ENRS 211250Z 34011KT 9999 VV005 14/12 Q1008

Aika: 21:34 (19:34 UTC)


TAF: puuttuu

Säähavainnot ja -ennusteet yli 4000 lentoasemalta (METAR- ja TAF-raportit).

Käytössä olevat sääasemat on merkitty karttaan keltaisilla ja punaisilla pisteillä.

Aseta hiiri pisteen päälle nähdäksesi sääaseman nimen.

Klikkaa sitten nähdäksesi säähavainnot ja -ennusteet.

Kartan vaihtaminen: klikkaa mustalla rastilla varustettuja vihreitä pisteitä, niin voit zoomata sisään; viivalla varustettua vihreää pistettä, niin voit zoomata ulos tai vihreitä nuolia, niin pääset viereisille kartoille.


METAR-TAF: